sensor_id;sensor_type;location;lat;lon;timestamp;temperature;humidity
23188;DHT22;11762;59.878;17.686;2023-03-01T02:43:10;-0.50;99.90
23188;DHT22;11762;59.878;17.686;2023-03-01T02:45:47;-0.60;99.90
23188;DHT22;11762;59.878;17.686;2023-03-01T02:48:14;-0.60;99.90
23188;DHT22;11762;59.878;17.686;2023-03-01T02:50:55;-0.60;99.90
23188;DHT22;11762;59.878;17.686;2023-03-01T02:53:35;-0.60;99.90
23188;DHT22;11762;59.878;17.686;2023-03-01T02:56:05;-0.70;99.90
23188;DHT22;11762;59.878;17.686;2023-03-01T02:58:40;-0.70;99.90
23188;DHT22;11762;59.878;17.686;2023-03-01T03:01:11;-0.70;99.90
23188;DHT22;11762;59.878;17.686;2023-03-01T03:03:39;-0.70;99.90
23188;DHT22;11762;59.878;17.686;2023-03-01T03:06:06;-0.70;99.90
23188;DHT22;11762;59.878;17.686;2023-03-01T03:08:34;-0.70;99.90
23188;DHT22;11762;59.878;17.686;2023-03-01T03:11:01;-0.70;99.90
23188;DHT22;11762;59.878;17.686;2023-03-01T03:13:28;-0.70;99.90
23188;DHT22;11762;59.878;17.686;2023-03-01T03:15:57;-0.70;99.90
23188;DHT22;11762;59.878;17.686;2023-03-01T03:18:24;-0.70;99.90
23188;DHT22;11762;59.878;17.686;2023-03-01T03:20:52;-0.70;99.90
23188;DHT22;11762;59.878;17.686;2023-03-01T03:23:20;-0.70;99.90
23188;DHT22;11762;59.878;17.686;2023-03-01T03:25:49;-0.70;99.90
23188;DHT22;11762;59.878;17.686;2023-03-01T03:28:16;-0.70;99.90
23188;DHT22;11762;59.878;17.686;2023-03-01T03:30:44;-0.70;99.90
23188;DHT22;11762;59.878;17.686;2023-03-01T03:33:13;-0.80;99.90
23188;DHT22;11762;59.878;17.686;2023-03-01T03:35:42;-0.80;99.90
23188;DHT22;11762;59.878;17.686;2023-03-01T03:38:12;-0.80;99.90
23188;DHT22;11762;59.878;17.686;2023-03-01T03:40:44;-0.80;99.90
23188;DHT22;11762;59.878;17.686;2023-03-01T03:43:13;-0.80;99.90
23188;DHT22;11762;59.878;17.686;2023-03-01T03:45:41;-0.80;99.90
23188;DHT22;11762;59.878;17.686;2023-03-01T03:48:09;-0.80;99.90
23188;DHT22;11762;59.878;17.686;2023-03-01T03:50:39;-0.80;99.90
23188;DHT22;11762;59.878;17.686;2023-03-01T03:53:08;-0.80;99.90
23188;DHT22;11762;59.878;17.686;2023-03-01T03:55:36;-0.90;99.90
23188;DHT22;11762;59.878;17.686;2023-03-01T03:58:06;-0.90;99.90
23188;DHT22;11762;59.878;17.686;2023-03-01T04:00:34;-0.90;99.90
23188;DHT22;11762;59.878;17.686;2023-03-01T04:03:02;-0.90;99.90
23188;DHT22;11762;59.878;17.686;2023-03-01T04:05:29;-0.90;99.90
23188;DHT22;11762;59.878;17.686;2023-03-01T04:07:58;-0.90;99.90
23188;DHT22;11762;59.878;17.686;2023-03-01T04:10:30;-1.00;99.90
23188;DHT22;11762;59.878;17.686;2023-03-01T04:12:58;-1.00;99.90
23188;DHT22;11762;59.878;17.686;2023-03-01T04:15:26;-1.00;99.90
23188;DHT22;11762;59.878;17.686;2023-03-01T04:17:54;-1.00;99.90
23188;DHT22;11762;59.878;17.686;2023-03-01T04:20:23;-1.00;99.90
23188;DHT22;11762;59.878;17.686;2023-03-01T04:22:52;-1.10;99.90
23188;DHT22;11762;59.878;17.686;2023-03-01T04:25:20;-1.10;99.90
23188;DHT22;11762;59.878;17.686;2023-03-01T04:27:47;-1.00;99.90
23188;DHT22;11762;59.878;17.686;2023-03-01T04:30:15;-1.10;99.90
23188;DHT22;11762;59.878;17.686;2023-03-01T04:32:42;-1.00;99.90
23188;DHT22;11762;59.878;17.686;2023-03-01T04:35:09;-1.00;99.90
23188;DHT22;11762;59.878;17.686;2023-03-01T04:37:36;-1.00;99.90
23188;DHT22;11762;59.878;17.686;2023-03-01T04:40:05;-1.00;99.90
23188;DHT22;11762;59.878;17.686;2023-03-01T04:42:42;-1.10;99.90
23188;DHT22;11762;59.878;17.686;2023-03-01T04:45:10;-1.10;99.90
23188;DHT22;11762;59.878;17.686;2023-03-01T04:47:40;-1.10;99.90
23188;DHT22;11762;59.878;17.686;2023-03-01T04:50:09;-1.10;99.90
23188;DHT22;11762;59.878;17.686;2023-03-01T04:52:37;-1.10;99.90
23188;DHT22;11762;59.878;17.686;2023-03-01T04:55:05;-1.10;99.90
23188;DHT22;11762;59.878;17.686;2023-03-01T04:57:32;-1.10;99.90
23188;DHT22;11762;59.878;17.686;2023-03-01T05:00:01;-1.10;99.90
23188;DHT22;11762;59.878;17.686;2023-03-01T05:02:46;-1.10;99.90
23188;DHT22;11762;59.878;17.686;2023-03-01T05:05:14;-1.10;99.90
23188;DHT22;11762;59.878;17.686;2023-03-01T05:07:41;-1.20;99.90
23188;DHT22;11762;59.878;17.686;2023-03-01T05:10:09;-1.20;99.90
23188;DHT22;11762;59.878;17.686;2023-03-01T05:12:36;-1.20;99.90
23188;DHT22;11762;59.878;17.686;2023-03-01T05:15:06;-1.20;99.90
23188;DHT22;11762;59.878;17.686;2023-03-01T05:17:33;-1.20;99.90
23188;DHT22;11762;59.878;17.686;2023-03-01T05:20:01;-1.20;99.90
23188;DHT22;11762;59.878;17.686;2023-03-01T05:22:32;-1.20;99.90
23188;DHT22;11762;59.878;17.686;2023-03-01T05:24:59;-1.30;99.90
23188;DHT22;11762;59.878;17.686;2023-03-01T05:27:26;-1.30;99.90
23188;DHT22;11762;59.878;17.686;2023-03-01T05:29:55;-1.20;99.90
23188;DHT22;11762;59.878;17.686;2023-03-01T05:32:23;-1.20;99.90
23188;DHT22;11762;59.878;17.686;2023-03-01T05:34:50;-1.10;99.90
23188;DHT22;11762;59.878;17.686;2023-03-01T05:37:20;-1.10;99.90
23188;DHT22;11762;59.878;17.686;2023-03-01T05:39:47;-1.10;99.90
23188;DHT22;11762;59.878;17.686;2023-03-01T05:42:16;-1.00;99.90
23188;DHT22;11762;59.878;17.686;2023-03-01T05:44:43;-1.00;99.90
23188;DHT22;11762;59.878;17.686;2023-03-01T05:47:10;-1.10;99.90
23188;DHT22;11762;59.878;17.686;2023-03-01T05:49:39;-1.10;99.90
23188;DHT22;11762;59.878;17.686;2023-03-01T05:52:06;-1.10;99.90
23188;DHT22;11762;59.878;17.686;2023-03-01T05:54:33;-1.00;99.90
23188;DHT22;11762;59.878;17.686;2023-03-01T05:57:00;-1.00;99.90
23188;DHT22;11762;59.878;17.686;2023-03-01T05:59:27;-0.90;99.90
23188;DHT22;11762;59.878;17.686;2023-03-01T06:01:54;-0.90;99.90
23188;DHT22;11762;59.878;17.686;2023-03-01T06:04:21;-0.90;99.90
23188;DHT22;11762;59.878;17.686;2023-03-01T06:06:49;-0.80;99.90
23188;DHT22;11762;59.878;17.686;2023-03-01T06:09:16;-0.80;99.90
23188;DHT22;11762;59.878;17.686;2023-03-01T06:11:43;-0.80;99.90
23188;DHT22;11762;59.878;17.686;2023-03-01T06:14:10;-0.80;99.90
23188;DHT22;11762;59.878;17.686;2023-03-01T06:16:40;-0.80;99.90
23188;DHT22;11762;59.878;17.686;2023-03-01T06:19:07;-0.70;99.90
23188;DHT22;11762;59.878;17.686;2023-03-01T06:21:34;-0.70;99.90
23188;DHT22;11762;59.878;17.686;2023-03-01T06:24:03;-0.70;99.90
23188;DHT22;11762;59.878;17.686;2023-03-01T06:26:31;-0.70;99.90
23188;DHT22;11762;59.878;17.686;2023-03-01T06:28:58;-0.60;99.90
23188;DHT22;11762;59.878;17.686;2023-03-01T06:31:25;-0.60;99.90
23188;DHT22;11762;59.878;17.686;2023-03-01T06:33:52;-0.60;99.90
23188;DHT22;11762;59.878;17.686;2023-03-01T06:36:19;-0.60;99.90
23188;DHT22;11762;59.878;17.686;2023-03-01T06:38:47;-0.50;99.90
23188;DHT22;11762;59.878;17.686;2023-03-01T06:41:16;-0.50;99.90
23188;DHT22;11762;59.878;17.686;2023-03-01T06:43:43;-0.40;99.90
23188;DHT22;11762;59.878;17.686;2023-03-01T06:46:10;-0.40;99.90
23188;DHT22;11762;59.878;17.686;2023-03-01T06:48:37;-0.30;99.90
23188;DHT22;11762;59.878;17.686;2023-03-01T06:51:04;-0.30;99.90
23188;DHT22;11762;59.878;17.686;2023-03-01T06:53:31;-0.30;99.90
23188;DHT22;11762;59.878;17.686;2023-03-01T06:55:59;-0.20;99.90
23188;DHT22;11762;59.878;17.686;2023-03-01T06:58:28;-0.20;99.90
23188;DHT22;11762;59.878;17.686;2023-03-01T07:00:55;-0.10;99.90
23188;DHT22;11762;59.878;17.686;2023-03-01T07:03:22;0.00;99.90
23188;DHT22;11762;59.878;17.686;2023-03-01T07:05:49;0.00;99.90
23188;DHT22;11762;59.878;17.686;2023-03-01T07:08:18;0.00;99.90
23188;DHT22;11762;59.878;17.686;2023-03-01T07:10:45;0.00;99.90
23188;DHT22;11762;59.878;17.686;2023-03-01T07:13:12;0.10;99.90
23188;DHT22;11762;59.878;17.686;2023-03-01T07:15:40;0.10;99.90
23188;DHT22;11762;59.878;17.686;2023-03-01T07:18:08;0.10;99.90
23188;DHT22;11762;59.878;17.686;2023-03-01T07:20:35;0.20;99.90
23188;DHT22;11762;59.878;17.686;2023-03-01T07:23:02;0.20;99.90
23188;DHT22;11762;59.878;17.686;2023-03-01T07:25:29;0.20;99.90
23188;DHT22;11762;59.878;17.686;2023-03-01T07:27:56;0.30;99.90
23188;DHT22;11762;59.878;17.686;2023-03-01T07:30:24;0.40;99.90
23188;DHT22;11762;59.878;17.686;2023-03-01T07:32:56;0.50;99.90
23188;DHT22;11762;59.878;17.686;2023-03-01T07:35:24;0.60;99.90
23188;DHT22;11762;59.878;17.686;2023-03-01T07:37:51;0.60;99.90
23188;DHT22;11762;59.878;17.686;2023-03-01T07:40:19;0.70;99.90
23188;DHT22;11762;59.878;17.686;2023-03-01T07:42:46;0.70;99.90
23188;DHT22;11762;59.878;17.686;2023-03-01T07:45:13;0.70;99.90
23188;DHT22;11762;59.878;17.686;2023-03-01T07:47:40;0.70;99.90
23188;DHT22;11762;59.878;17.686;2023-03-01T07:50:10;0.80;99.90
23188;DHT22;11762;59.878;17.686;2023-03-01T07:52:37;0.80;99.90
23188;DHT22;11762;59.878;17.686;2023-03-01T07:55:04;0.90;99.90
23188;DHT22;11762;59.878;17.686;2023-03-01T07:57:31;0.90;99.90
23188;DHT22;11762;59.878;17.686;2023-03-01T08:00:01;1.00;99.90
23188;DHT22;11762;59.878;17.686;2023-03-01T08:02:28;1.00;99.90
23188;DHT22;11762;59.878;17.686;2023-03-01T08:04:55;1.10;99.90
23188;DHT22;11762;59.878;17.686;2023-03-01T08:07:24;1.10;99.90
23188;DHT22;11762;59.878;17.686;2023-03-01T08:09:51;1.20;99.90
23188;DHT22;11762;59.878;17.686;2023-03-01T08:12:18;1.20;99.90
23188;DHT22;11762;59.878;17.686;2023-03-01T08:14:45;1.30;99.90
23188;DHT22;11762;59.878;17.686;2023-03-01T08:17:13;1.30;99.90
23188;DHT22;11762;59.878;17.686;2023-03-01T08:19:40;1.40;99.90
23188;DHT22;11762;59.878;17.686;2023-03-01T08:22:07;1.40;99.90
23188;DHT22;11762;59.878;17.686;2023-03-01T08:24:36;1.50;99.90
23188;DHT22;11762;59.878;17.686;2023-03-01T08:27:03;1.50;99.90
23188;DHT22;11762;59.878;17.686;2023-03-01T08:29:30;1.60;99.90
23188;DHT22;11762;59.878;17.686;2023-03-01T08:31:58;1.70;99.90
23188;DHT22;11762;59.878;17.686;2023-03-01T08:34:25;1.70;99.90
23188;DHT22;11762;59.878;17.686;2023-03-01T08:36:52;1.80;99.90
23188;DHT22;11762;59.878;17.686;2023-03-01T08:39:20;1.90;99.90
23188;DHT22;11762;59.878;17.686;2023-03-01T08:41:48;1.90;99.90
23188;DHT22;11762;59.878;17.686;2023-03-01T08:44:16;2.00;99.90
23188;DHT22;11762;59.878;17.686;2023-03-01T08:46:44;2.10;99.90
23188;DHT22;11762;59.878;17.686;2023-03-01T08:49:13;2.20;99.90
23188;DHT22;11762;59.878;17.686;2023-03-01T08:51:41;2.20;99.90
23188;DHT22;11762;59.878;17.686;2023-03-01T08:54:13;2.30;99.90
23188;DHT22;11762;59.878;17.686;2023-03-01T08:56:40;2.40;99.90
23188;DHT22;11762;59.878;17.686;2023-03-01T08:59:10;2.40;99.90
23188;DHT22;11762;59.878;17.686;2023-03-01T09:01:37;2.60;99.90
23188;DHT22;11762;59.878;17.686;2023-03-01T09:04:04;2.60;99.90
23188;DHT22;11762;59.878;17.686;2023-03-01T09:06:31;2.80;99.90
23188;DHT22;11762;59.878;17.686;2023-03-01T09:08:59;2.90;99.90
23188;DHT22;11762;59.878;17.686;2023-03-01T09:11:27;3.00;99.90
23188;DHT22;11762;59.878;17.686;2023-03-01T09:13:55;3.00;99.90
23188;DHT22;11762;59.878;17.686;2023-03-01T09:16:23;3.10;99.90
23188;DHT22;11762;59.878;17.686;2023-03-01T09:18:51;3.10;99.90
23188;DHT22;11762;59.878;17.686;2023-03-01T09:21:21;3.20;99.90
23188;DHT22;11762;59.878;17.686;2023-03-01T09:23:49;3.30;99.90
23188;DHT22;11762;59.878;17.686;2023-03-01T09:26:19;3.30;99.90
23188;DHT22;11762;59.878;17.686;2023-03-01T09:28:48;3.40;99.90
23188;DHT22;11762;59.878;17.686;2023-03-01T09:31:17;3.50;99.90
23188;DHT22;11762;59.878;17.686;2023-03-01T09:33:47;3.60;99.90
23188;DHT22;11762;59.878;17.686;2023-03-01T09:36:17;3.70;99.90
23188;DHT22;11762;59.878;17.686;2023-03-01T09:38:44;3.70;99.90
23188;DHT22;11762;59.878;17.686;2023-03-01T09:41:23;3.70;99.90
23188;DHT22;11762;59.878;17.686;2023-03-01T09:43:55;3.80;99.90
23188;DHT22;11762;59.878;17.686;2023-03-01T09:46:24;3.90;99.90
23188;DHT22;11762;59.878;17.686;2023-03-01T09:48:56;4.00;99.90
23188;DHT22;11762;59.878;17.686;2023-03-01T09:51:29;4.00;99.90
23188;DHT22;11762;59.878;17.686;2023-03-01T09:53:56;4.10;99.90
23188;DHT22;11762;59.878;17.686;2023-03-01T09:56:28;4.10;99.90
23188;DHT22;11762;59.878;17.686;2023-03-01T09:59:02;4.20;99.90
23188;DHT22;11762;59.878;17.686;2023-03-01T10:01:34;4.20;99.90
23188;DHT22;11762;59.878;17.686;2023-03-01T10:04:26;4.30;99.90
23188;DHT22;11762;59.878;17.686;2023-03-01T10:07:03;4.30;99.90
23188;DHT22;11762;59.878;17.686;2023-03-01T10:09:34;4.40;99.90
23188;DHT22;11762;59.878;17.686;2023-03-01T10:12:02;4.50;99.90
23188;DHT22;11762;59.878;17.686;2023-03-01T10:14:34;4.50;99.90
23188;DHT22;11762;59.878;17.686;2023-03-01T10:17:03;4.50;99.90
23188;DHT22;11762;59.878;17.686;2023-03-01T10:19:39;4.50;99.90
23188;DHT22;11762;59.878;17.686;2023-03-01T10:22:13;4.60;99.90
23188;DHT22;11762;59.878;17.686;2023-03-01T10:24:42;4.70;99.90
23188;DHT22;11762;59.878;17.686;2023-03-01T10:27:17;4.80;99.90
23188;DHT22;11762;59.878;17.686;2023-03-01T10:29:52;4.90;99.90
23188;DHT22;11762;59.878;17.686;2023-03-01T10:32:22;5.00;99.90
23188;DHT22;11762;59.878;17.686;2023-03-01T10:34:51;5.30;99.90
23188;DHT22;11762;59.878;17.686;2023-03-01T10:37:19;5.40;99.90
23188;DHT22;11762;59.878;17.686;2023-03-01T10:39:57;5.50;99.90
23188;DHT22;11762;59.878;17.686;2023-03-01T10:42:27;5.60;99.90
23188;DHT22;11762;59.878;17.686;2023-03-01T10:44:58;5.60;99.90
23188;DHT22;11762;59.878;17.686;2023-03-01T10:47:40;5.60;99.90
23188;DHT22;11762;59.878;17.686;2023-03-01T10:50:19;5.70;99.90
23188;DHT22;11762;59.878;17.686;2023-03-01T10:52:57;5.80;99.90
23188;DHT22;11762;59.878;17.686;2023-03-01T10:55:29;5.80;99.90
23188;DHT22;11762;59.878;17.686;2023-03-01T10:58:09;5.80;99.90
23188;DHT22;11762;59.878;17.686;2023-03-01T11:00:48;5.90;99.90
23188;DHT22;11762;59.878;17.686;2023-03-01T11:03:19;6.00;99.90
23188;DHT22;11762;59.878;17.686;2023-03-01T11:05:55;6.10;99.90
23188;DHT22;11762;59.878;17.686;2023-03-01T11:08:43;6.00;99.90
23188;DHT22;11762;59.878;17.686;2023-03-01T11:11:21;6.10;99.90
23188;DHT22;11762;59.878;17.686;2023-03-01T11:13:54;6.20;99.90
23188;DHT22;11762;59.878;17.686;2023-03-01T11:16:33;6.20;99.90
23188;DHT22;11762;59.878;17.686;2023-03-01T11:19:18;6.20;99.90
23188;DHT22;11762;59.878;17.686;2023-03-01T11:21:55;6.30;99.90
23188;DHT22;11762;59.878;17.686;2023-03-01T11:24:29;6.40;99.90
23188;DHT22;11762;59.878;17.686;2023-03-01T11:27:02;6.30;99.90
23188;DHT22;11762;59.878;17.686;2023-03-01T11:29:34;6.40;99.90
23188;DHT22;11762;59.878;17.686;2023-03-01T11:32:06;6.60;99.90
23188;DHT22;11762;59.878;17.686;2023-03-01T11:34:42;6.60;99.90
23188;DHT22;11762;59.878;17.686;2023-03-01T11:37:21;6.60;99.90
23188;DHT22;11762;59.878;17.686;2023-03-01T11:39:56;6.70;99.90
23188;DHT22;11762;59.878;17.686;2023-03-01T11:42:37;6.60;99.90
23188;DHT22;11762;59.878;17.686;2023-03-01T11:45:09;6.50;99.90
23188;DHT22;11762;59.878;17.686;2023-03-01T11:48:01;6.60;99.90
23188;DHT22;11762;59.878;17.686;2023-03-01T11:50:35;6.70;99.90
23188;DHT22;11762;59.878;17.686;2023-03-01T11:53:19;6.80;99.90
23188;DHT22;11762;59.878;17.686;2023-03-01T11:55:58;6.90;99.90
23188;DHT22;11762;59.878;17.686;2023-03-01T11:58:40;7.00;99.90
23188;DHT22;11762;59.878;17.686;2023-03-01T12:01:19;6.90;99.90
23188;DHT22;11762;59.878;17.686;2023-03-01T12:04:16;6.90;99.90
23188;DHT22;11762;59.878;17.686;2023-03-01T12:06:52;6.80;99.90
23188;DHT22;11762;59.878;17.686;2023-03-01T12:09:46;6.80;99.90
23188;DHT22;11762;59.878;17.686;2023-03-01T12:12:43;6.90;99.90
23188;DHT22;11762;59.878;17.686;2023-03-01T12:15:46;6.90;99.90
23188;DHT22;11762;59.878;17.686;2023-03-01T12:18:31;7.00;99.90
23188;DHT22;11762;59.878;17.686;2023-03-01T12:21:09;6.90;99.90
23188;DHT22;11762;59.878;17.686;2023-03-01T12:24:14;6.90;99.90
23188;DHT22;11762;59.878;17.686;2023-03-01T12:26:51;6.90;99.90
23188;DHT22;11762;59.878;17.686;2023-03-01T12:29:25;6.90;99.90
23188;DHT22;11762;59.878;17.686;2023-03-01T12:32:22;7.00;99.90
23188;DHT22;11762;59.878;17.686;2023-03-01T12:35:19;7.00;99.90
23188;DHT22;11762;59.878;17.686;2023-03-01T12:37:58;7.10;99.90
23188;DHT22;11762;59.878;17.686;2023-03-01T12:40:37;7.20;99.90
23188;DHT22;11762;59.878;17.686;2023-03-01T12:43:22;7.40;99.90
23188;DHT22;11762;59.878;17.686;2023-03-01T12:46:11;7.50;99.90
23188;DHT22;11762;59.878;17.686;2023-03-01T12:48:50;7.50;99.90
23188;DHT22;11762;59.878;17.686;2023-03-01T12:51:25;7.50;99.90
23188;DHT22;11762;59.878;17.686;2023-03-01T12:53:55;7.60;99.90
23188;DHT22;11762;59.878;17.686;2023-03-01T12:56:25;7.60;99.90
23188;DHT22;11762;59.878;17.686;2023-03-01T12:59:00;7.60;99.90
23188;DHT22;11762;59.878;17.686;2023-03-01T13:01:42;7.50;99.90
23188;DHT22;11762;59.878;17.686;2023-03-01T13:07:13;7.60;99.90
23188;DHT22;11762;59.878;17.686;2023-03-01T13:09:49;7.60;99.90
23188;DHT22;11762;59.878;17.686;2023-03-01T13:12:45;7.70;99.90
23188;DHT22;11762;59.878;17.686;2023-03-01T13:15:29;7.80;99.90
23188;DHT22;11762;59.878;17.686;2023-03-01T13:17:58;7.90;99.90
23188;DHT22;11762;59.878;17.686;2023-03-01T13:20:29;7.90;99.90
23188;DHT22;11762;59.878;17.686;2023-03-01T13:23:09;8.00;99.90
23188;DHT22;11762;59.878;17.686;2023-03-01T13:26:00;8.00;99.90
23188;DHT22;11762;59.878;17.686;2023-03-01T13:28:51;8.00;99.90
23188;DHT22;11762;59.878;17.686;2023-03-01T13:34:46;7.90;99.90
23188;DHT22;11762;59.878;17.686;2023-03-01T13:37:25;7.80;99.90
23188;DHT22;11762;59.878;17.686;2023-03-01T13:39:58;7.80;99.90
23188;DHT22;11762;59.878;17.686;2023-03-01T13:42:39;7.80;99.90
23188;DHT22;11762;59.878;17.686;2023-03-01T13:45:17;7.80;99.90
23188;DHT22;11762;59.878;17.686;2023-03-01T13:47:46;7.80;99.90
23188;DHT22;11762;59.878;17.686;2023-03-01T13:50:21;7.80;99.90
23188;DHT22;11762;59.878;17.686;2023-03-01T13:52:53;7.70;99.90
23188;DHT22;11762;59.878;17.686;2023-03-01T13:55:26;7.70;99.90
23188;DHT22;11762;59.878;17.686;2023-03-01T13:57:56;7.60;99.90
23188;DHT22;11762;59.878;17.686;2023-03-01T14:00:33;7.60;99.90
23188;DHT22;11762;59.878;17.686;2023-03-01T14:03:08;7.60;99.90
23188;DHT22;11762;59.878;17.686;2023-03-01T14:05:38;7.60;99.90
23188;DHT22;11762;59.878;17.686;2023-03-01T14:08:19;7.50;99.90
23188;DHT22;11762;59.878;17.686;2023-03-01T14:10:58;7.40;99.90
23188;DHT22;11762;59.878;17.686;2023-03-01T14:13:50;7.40;99.90
23188;DHT22;11762;59.878;17.686;2023-03-01T14:16:27;7.40;99.90
23188;DHT22;11762;59.878;17.686;2023-03-01T14:19:07;7.40;99.90
23188;DHT22;11762;59.878;17.686;2023-03-01T14:21:38;7.40;99.90
23188;DHT22;11762;59.878;17.686;2023-03-01T14:24:05;7.30;99.90
23188;DHT22;11762;59.878;17.686;2023-03-01T14:26:35;7.30;99.90
23188;DHT22;11762;59.878;17.686;2023-03-01T14:29:03;7.20;99.90
23188;DHT22;11762;59.878;17.686;2023-03-01T14:31:35;7.30;99.90
23188;DHT22;11762;59.878;17.686;2023-03-01T14:34:03;7.30;99.90
23188;DHT22;11762;59.878;17.686;2023-03-01T14:36:32;7.30;99.90
23188;DHT22;11762;59.878;17.686;2023-03-01T14:39:02;7.30;99.90
23188;DHT22;11762;59.878;17.686;2023-03-01T14:41:42;7.30;99.90
23188;DHT22;11762;59.878;17.686;2023-03-01T14:44:16;7.30;99.90
23188;DHT22;11762;59.878;17.686;2023-03-01T14:46:46;7.30;99.90
23188;DHT22;11762;59.878;17.686;2023-03-01T14:49:16;7.30;99.90
23188;DHT22;11762;59.878;17.686;2023-03-01T14:51:50;7.30;99.90
23188;DHT22;11762;59.878;17.686;2023-03-01T14:54:24;7.30;99.90
23188;DHT22;11762;59.878;17.686;2023-03-01T14:56:53;7.20;99.90
23188;DHT22;11762;59.878;17.686;2023-03-01T14:59:22;7.20;99.90
23188;DHT22;11762;59.878;17.686;2023-03-01T15:01:51;7.10;99.90
23188;DHT22;11762;59.878;17.686;2023-03-01T15:04:19;7.10;99.90
23188;DHT22;11762;59.878;17.686;2023-03-01T15:06:50;7.00;99.90
23188;DHT22;11762;59.878;17.686;2023-03-01T15:09:18;7.00;99.90
23188;DHT22;11762;59.878;17.686;2023-03-01T15:11:47;7.00;99.90
23188;DHT22;11762;59.878;17.686;2023-03-01T15:14:36;6.90;99.90
23188;DHT22;11762;59.878;17.686;2023-03-01T15:17:30;6.90;99.90
23188;DHT22;11762;59.878;17.686;2023-03-01T15:19:58;6.90;99.90
23188;DHT22;11762;59.878;17.686;2023-03-01T15:22:26;6.80;99.90
23188;DHT22;11762;59.878;17.686;2023-03-01T15:24:53;6.70;99.90
23188;DHT22;11762;59.878;17.686;2023-03-01T15:27:24;6.70;99.90
23188;DHT22;11762;59.878;17.686;2023-03-01T15:29:54;6.60;99.90
23188;DHT22;11762;59.878;17.686;2023-03-01T15:32:28;6.60;99.90
23188;DHT22;11762;59.878;17.686;2023-03-01T15:34:56;6.50;99.90
23188;DHT22;11762;59.878;17.686;2023-03-01T15:37:39;6.50;99.90
23188;DHT22;11762;59.878;17.686;2023-03-01T15:40:18;6.50;99.90
23188;DHT22;11762;59.878;17.686;2023-03-01T15:42:47;6.40;99.90
23188;DHT22;11762;59.878;17.686;2023-03-01T15:45:23;6.40;99.90
23188;DHT22;11762;59.878;17.686;2023-03-01T15:47:53;6.40;99.90
23188;DHT22;11762;59.878;17.686;2023-03-01T15:50:25;6.40;99.90
23188;DHT22;11762;59.878;17.686;2023-03-01T15:52:53;6.40;99.90
23188;DHT22;11762;59.878;17.686;2023-03-01T15:55:22;6.40;99.90
23188;DHT22;11762;59.878;17.686;2023-03-01T15:57:58;6.40;99.90
23188;DHT22;11762;59.878;17.686;2023-03-01T16:00:27;6.30;99.90
23188;DHT22;11762;59.878;17.686;2023-03-01T16:02:54;6.30;99.90
23188;DHT22;11762;59.878;17.686;2023-03-01T16:05:23;6.30;99.90
23188;DHT22;11762;59.878;17.686;2023-03-01T16:07:51;6.30;99.90
23188;DHT22;11762;59.878;17.686;2023-03-01T16:10:18;6.20;99.90
23188;DHT22;11762;59.878;17.686;2023-03-01T16:12:46;6.20;99.90
23188;DHT22;11762;59.878;17.686;2023-03-01T16:15:18;6.20;99.90
23188;DHT22;11762;59.878;17.686;2023-03-01T16:17:45;6.20;99.90
23188;DHT22;11762;59.878;17.686;2023-03-01T16:20:13;6.10;99.90
23188;DHT22;11762;59.878;17.686;2023-03-01T16:22:41;6.10;99.90
23188;DHT22;11762;59.878;17.686;2023-03-01T16:25:09;6.20;99.90
23188;DHT22;11762;59.878;17.686;2023-03-01T16:27:36;6.20;99.90
23188;DHT22;11762;59.878;17.686;2023-03-01T16:30:05;6.20;99.90
23188;DHT22;11762;59.878;17.686;2023-03-01T16:32:37;6.20;99.90
23188;DHT22;11762;59.878;17.686;2023-03-01T16:35:05;6.10;99.90
23188;DHT22;11762;59.878;17.686;2023-03-01T16:37:33;6.10;99.90
23188;DHT22;11762;59.878;17.686;2023-03-01T16:40:00;6.00;99.90
23188;DHT22;11762;59.878;17.686;2023-03-01T16:42:33;6.00;99.90
23188;DHT22;11762;59.878;17.686;2023-03-01T16:45:00;6.00;99.90
23188;DHT22;11762;59.878;17.686;2023-03-01T16:47:27;6.00;99.90
23188;DHT22;11762;59.878;17.686;2023-03-01T16:49:56;6.00;99.90
23188;DHT22;11762;59.878;17.686;2023-03-01T16:52:23;6.00;99.90
23188;DHT22;11762;59.878;17.686;2023-03-01T16:54:50;6.00;99.90
23188;DHT22;11762;59.878;17.686;2023-03-01T16:57:17;6.00;99.90
23188;DHT22;11762;59.878;17.686;2023-03-01T16:59:44;6.00;99.90
23188;DHT22;11762;59.878;17.686;2023-03-01T17:02:12;6.00;99.90
23188;DHT22;11762;59.878;17.686;2023-03-01T17:04:40;6.00;99.90
23188;DHT22;11762;59.878;17.686;2023-03-01T17:07:08;5.90;99.90
23188;DHT22;11762;59.878;17.686;2023-03-01T17:09:36;5.90;99.90
23188;DHT22;11762;59.878;17.686;2023-03-01T17:12:03;6.00;99.90
23188;DHT22;11762;59.878;17.686;2023-03-01T17:14:30;6.00;99.90
23188;DHT22;11762;59.878;17.686;2023-03-01T17:16:58;6.00;99.90
23188;DHT22;11762;59.878;17.686;2023-03-01T17:19:25;6.00;99.90
23188;DHT22;11762;59.878;17.686;2023-03-01T17:21:52;6.00;99.90
23188;DHT22;11762;59.878;17.686;2023-03-01T17:24:20;6.00;99.90
23188;DHT22;11762;59.878;17.686;2023-03-01T17:26:47;6.00;99.90
23188;DHT22;11762;59.878;17.686;2023-03-01T17:29:14;6.00;99.90
23188;DHT22;11762;59.878;17.686;2023-03-01T17:31:43;6.00;99.90
23188;DHT22;11762;59.878;17.686;2023-03-01T17:34:10;5.90;99.90
23188;DHT22;11762;59.878;17.686;2023-03-01T17:36:37;5.80;99.90
23188;DHT22;11762;59.878;17.686;2023-03-01T17:39:08;5.70;99.90
23188;DHT22;11762;59.878;17.686;2023-03-01T17:41:37;5.70;99.90
23188;DHT22;11762;59.878;17.686;2023-03-01T17:44:04;5.70;99.90
23188;DHT22;11762;59.878;17.686;2023-03-01T17:46:31;5.70;99.90
23188;DHT22;11762;59.878;17.686;2023-03-01T17:48:58;5.70;99.90
23188;DHT22;11762;59.878;17.686;2023-03-01T17:51:25;5.70;99.90
23188;DHT22;11762;59.878;17.686;2023-03-01T17:53:52;5.70;99.90
23188;DHT22;11762;59.878;17.686;2023-03-01T17:56:19;5.70;99.90
23188;DHT22;11762;59.878;17.686;2023-03-01T17:58:48;5.70;99.90
23188;DHT22;11762;59.878;17.686;2023-03-01T18:01:17;5.70;99.90
23188;DHT22;11762;59.878;17.686;2023-03-01T18:03:45;5.70;99.90
23188;DHT22;11762;59.878;17.686;2023-03-01T18:06:14;5.70;99.90
23188;DHT22;11762;59.878;17.686;2023-03-01T18:08:41;5.70;99.90
23188;DHT22;11762;59.878;17.686;2023-03-01T18:11:09;5.70;99.90
23188;DHT22;11762;59.878;17.686;2023-03-01T18:13:37;5.70;99.90
23188;DHT22;11762;59.878;17.686;2023-03-01T18:16:07;5.60;99.90
23188;DHT22;11762;59.878;17.686;2023-03-01T18:18:35;5.50;99.90
23188;DHT22;11762;59.878;17.686;2023-03-01T18:21:03;5.50;99.90
23188;DHT22;11762;59.878;17.686;2023-03-01T18:23:31;5.50;99.90
23188;DHT22;11762;59.878;17.686;2023-03-01T18:25:59;5.50;99.90
23188;DHT22;11762;59.878;17.686;2023-03-01T18:28:27;5.50;99.90
23188;DHT22;11762;59.878;17.686;2023-03-01T18:30:57;5.50;99.90
23188;DHT22;11762;59.878;17.686;2023-03-01T18:33:26;5.50;99.90
23188;DHT22;11762;59.878;17.686;2023-03-01T18:35:53;5.50;99.90
23188;DHT22;11762;59.878;17.686;2023-03-01T18:38:21;5.50;99.90
23188;DHT22;11762;59.878;17.686;2023-03-01T18:40:50;5.50;99.90